createdAt,value
2023-01-20T00:03:46.567Z,-1.00
2023-01-20T00:08:56.184Z,-1.00
2023-01-20T00:14:04.566Z,-1.20
2023-01-20T00:19:15.567Z,-1.40
2023-01-20T00:24:23.971Z,-1.50
2023-01-20T00:29:31.171Z,-1.40
2023-01-20T00:34:38.034Z,-1.30
2023-01-20T00:39:45.147Z,-1.20
2023-01-20T00:44:52.228Z,-1.20
2023-01-20T00:49:59.081Z,-1.20
2023-01-20T00:55:06.956Z,-1.00
2023-01-20T01:00:14.497Z,-1.10
2023-01-20T01:05:21.569Z,-1.20
2023-01-20T01:10:28.850Z,-1.00
2023-01-20T01:15:36.082Z,-1.00
2023-01-20T01:20:44.587Z,-1.20
2023-01-20T01:25:51.373Z,-1.20
2023-01-20T01:31:06.564Z,-1.00
2023-01-20T01:36:17.661Z,-1.00
2023-01-20T01:41:24.825Z,-1.00
2023-01-20T01:46:31.636Z,-1.10
2023-01-20T01:51:45.875Z,-1.00
2023-01-20T01:56:54.320Z,-1.10
2023-01-20T02:02:01.235Z,-1.20
2023-01-20T02:07:16.435Z,-1.10
2023-01-20T02:12:24.852Z,-1.00
2023-01-20T02:17:36.325Z,-1.10
2023-01-20T02:23:14.647Z,-1.20
2023-01-20T02:28:34.620Z,-1.30
2023-01-20T02:33:54.410Z,-1.40
2023-01-20T02:39:27.599Z,-1.50
2023-01-20T02:44:27.215Z,-1.50
2023-01-20T02:50:00.627Z,-1.30
2023-01-20T02:55:14.927Z,-1.50
2023-01-20T03:00:29.267Z,-1.50
2023-01-20T03:05:39.458Z,-1.40
2023-01-20T03:10:48.392Z,-1.40
2023-01-20T03:16:05.293Z,-1.30
2023-01-20T03:21:13.735Z,-1.40
2023-01-20T03:26:23.826Z,-1.50
2023-01-20T03:31:47.175Z,-1.40
2023-01-20T03:36:55.772Z,-1.40
2023-01-20T03:42:18.040Z,-1.20
2023-01-20T03:47:51.457Z,-1.20
2023-01-20T03:53:29.294Z,-1.50
2023-01-20T03:58:40.931Z,-1.30
2023-01-20T04:03:51.351Z,-1.50
2023-01-20T04:09:08.103Z,-1.40
2023-01-20T04:14:14.915Z,-1.60
2023-01-20T04:19:21.587Z,-1.60
2023-01-20T04:24:38.604Z,-1.40
2023-01-20T04:29:45.272Z,-1.30
2023-01-20T04:34:54.035Z,-1.50
2023-01-20T04:40:02.382Z,-1.60
2023-01-20T04:45:10.838Z,-1.50
2023-01-20T04:50:18.154Z,-1.60
2023-01-20T04:55:26.389Z,-1.50
2023-01-20T05:00:33.088Z,-1.60
2023-01-20T05:05:39.666Z,-1.50
2023-01-20T05:10:46.365Z,-1.50
2023-01-20T05:15:53.132Z,-1.50
2023-01-20T05:20:59.731Z,-1.40
2023-01-20T05:26:06.531Z,-1.40
2023-01-20T05:31:13.282Z,-1.40
2023-01-20T05:36:19.974Z,-1.40
2023-01-20T05:41:26.654Z,-1.50
2023-01-20T05:46:33.410Z,-1.30
2023-01-20T05:51:40.154Z,-1.50
2023-01-20T05:56:48.590Z,-1.50
2023-01-20T06:01:57.330Z,-1.40
2023-01-20T06:07:04.397Z,-1.40
2023-01-20T06:12:11.451Z,-1.40
2023-01-20T06:17:18.103Z,-1.50
2023-01-20T06:22:24.802Z,-1.60
2023-01-20T06:27:31.520Z,-1.60
2023-01-20T06:32:38.256Z,-1.60
2023-01-20T06:37:45.152Z,-1.40
2023-01-20T06:42:52.019Z,-1.50
2023-01-20T06:47:58.683Z,-1.50
2023-01-20T06:53:05.372Z,-1.50
2023-01-20T06:58:12.128Z,-1.50
2023-01-20T07:03:18.872Z,-1.50
2023-01-20T07:08:25.814Z,-1.60
2023-01-20T07:13:32.510Z,-1.50
2023-01-20T07:18:39.713Z,-1.50
2023-01-20T07:23:46.504Z,-1.40
2023-01-20T07:28:53.189Z,-1.50
2023-01-20T07:34:00.694Z,-1.30
2023-01-20T07:39:07.563Z,-1.20
2023-01-20T07:44:14.343Z,-1.30
2023-01-20T07:49:21.330Z,-1.20
2023-01-20T07:54:28.232Z,-1.20
2023-01-20T07:59:35.043Z,-1.00
2023-01-20T08:04:42.372Z,-1.10
2023-01-20T08:09:50.464Z,-1.00
2023-01-20T08:14:57.313Z,-0.90
2023-01-20T08:20:05.107Z,-1.10
2023-01-20T08:25:11.798Z,-1.00
2023-01-20T08:30:18.546Z,-0.80
2023-01-20T08:35:25.884Z,-0.90
2023-01-20T08:40:34.109Z,-0.90
2023-01-20T08:45:42.776Z,-0.70
2023-01-20T08:50:49.749Z,-0.60
2023-01-20T08:55:59.460Z,-0.70
2023-01-20T09:01:12.717Z,-0.50
2023-01-20T09:06:21.420Z,-0.60
2023-01-20T09:11:28.233Z,-0.80
2023-01-20T09:16:36.273Z,-0.70
2023-01-20T09:21:43.814Z,-0.60
2023-01-20T09:26:51.559Z,-0.80
2023-01-20T09:31:58.987Z,-0.60
2023-01-20T09:37:13.733Z,-0.60
2023-01-20T09:42:57.293Z,-0.60
2023-01-20T09:48:34.526Z,-0.70
2023-01-20T09:53:51.628Z,-0.60
2023-01-20T09:59:11.803Z,-0.60
2023-01-20T10:04:32.912Z,-0.60
2023-01-20T10:10:02.126Z,-0.50
2023-01-20T10:15:16.506Z,-0.40
2023-01-20T10:20:59.658Z,-0.50
2023-01-20T10:26:16.910Z,-0.30
2023-01-20T10:31:30.836Z,-0.30
2023-01-20T10:36:39.230Z,-0.20
2023-01-20T10:41:56.373Z,-0.10
2023-01-20T10:47:14.017Z,-0.10
2023-01-20T10:52:55.065Z,0.00
2023-01-20T10:58:26.920Z,0.10
2023-01-20T11:03:37.499Z,-0.10
2023-01-20T11:08:45.417Z,0.00
2023-01-20T11:13:54.391Z,0.10
2023-01-20T11:19:06.293Z,0.00
2023-01-20T11:24:36.969Z,0.10
2023-01-20T11:29:48.433Z,0.00
2023-01-20T11:34:56.976Z,0.00
2023-01-20T11:40:08.500Z,0.10
2023-01-20T11:45:32.849Z,0.00
2023-01-20T11:50:53.470Z,0.00
2023-01-20T11:56:07.315Z,0.10
2023-01-20T12:01:26.932Z,0.10
2023-01-20T12:06:52.665Z,0.10
2023-01-20T12:12:33.891Z,0.20
2023-01-20T12:18:02.620Z,0.30
2023-01-20T12:23:28.603Z,0.20
2023-01-20T12:28:57.886Z,0.10
2023-01-20T12:34:20.833Z,-0.10
2023-01-20T12:40:08.762Z,-0.20
2023-01-20T12:45:29.024Z,0.00
2023-01-20T12:51:02.167Z,-0.10
2023-01-20T12:56:34.848Z,0.10
2023-01-20T13:01:54.868Z,-0.10
2023-01-20T13:07:31.194Z,0.00
2023-01-20T13:13:01.777Z,0.00
2023-01-20T13:18:53.556Z,0.00
2023-01-20T13:24:04.094Z,-0.10
2023-01-20T13:29:23.659Z,-0.10
2023-01-20T13:34:35.766Z,-0.10
2023-01-20T13:39:46.797Z,-0.10
2023-01-20T13:45:17.483Z,-0.10
2023-01-20T13:50:35.068Z,-0.10
2023-01-20T13:55:49.309Z,-0.10
2023-01-20T14:01:12.720Z,-0.20
2023-01-20T14:06:25.959Z,-0.20
2023-01-20T14:11:35.015Z,-0.20
2023-01-20T14:16:44.588Z,-0.10
2023-01-20T14:21:55.489Z,0.00
2023-01-20T14:27:28.654Z,-0.10
2023-01-20T14:32:37.659Z,0.00
2023-01-20T14:37:45.052Z,-0.10
2023-01-20T14:43:01.573Z,0.00
2023-01-20T14:48:09.309Z,-0.10
2023-01-20T14:53:16.981Z,-0.20
2023-01-20T14:58:24.695Z,-0.20
2023-01-20T15:03:33.190Z,-0.30
2023-01-20T15:08:56.979Z,-0.30
2023-01-20T15:14:11.574Z,-0.30
2023-01-20T15:19:30.825Z,-0.30
2023-01-20T15:24:41.685Z,-0.30
2023-01-20T15:30:22.016Z,-0.30
2023-01-20T15:35:28.706Z,-0.50
2023-01-20T15:40:36.378Z,-0.50
2023-01-20T15:45:42.981Z,-0.50
2023-01-20T15:50:51.017Z,-0.60
2023-01-20T15:55:57.825Z,-0.50
2023-01-20T16:01:04.590Z,-0.60
2023-01-20T16:06:19.095Z,-0.60
2023-01-20T16:11:26.152Z,-0.60
2023-01-20T16:16:34.063Z,-0.60
2023-01-20T16:21:40.882Z,-0.80
2023-01-20T16:26:49.277Z,-0.80
2023-01-20T16:31:55.985Z,-0.70
2023-01-20T16:37:02.646Z,-0.70
2023-01-20T16:42:14.528Z,-0.90
2023-01-20T16:47:21.422Z,-0.90
2023-01-20T16:52:28.322Z,-0.90
2023-01-20T16:57:35.163Z,-0.90
2023-01-20T17:02:41.984Z,-0.80
2023-01-20T17:07:50.136Z,-0.70
2023-01-20T17:12:58.671Z,-0.70
2023-01-20T17:18:05.609Z,-0.80
2023-01-20T17:23:12.853Z,-0.70
2023-01-20T17:28:19.601Z,-0.80
2023-01-20T17:33:26.367Z,-0.90
2023-01-20T17:38:36.215Z,-0.80
2023-01-20T17:43:47.578Z,-0.80
2023-01-20T17:48:54.666Z,-0.70
2023-01-20T17:54:04.055Z,-0.80
2023-01-20T17:59:11.058Z,-0.80
2023-01-20T18:04:17.758Z,-0.80
2023-01-20T18:09:24.437Z,-0.90
2023-01-20T18:14:31.219Z,-0.70
2023-01-20T18:19:37.924Z,-0.70
2023-01-20T18:24:45.241Z,-0.90
2023-01-20T18:29:51.980Z,-0.70
2023-01-20T18:34:58.862Z,-0.80
2023-01-20T18:40:06.489Z,-0.80
2023-01-20T18:45:13.245Z,-0.80
2023-01-20T18:50:20.231Z,-0.80
2023-01-20T18:55:27.056Z,-0.70
2023-01-20T19:00:33.952Z,-0.90
2023-01-20T19:05:40.682Z,-0.90
2023-01-20T19:10:47.355Z,-0.80
2023-01-20T19:15:55.254Z,-0.80
2023-01-20T19:21:11.012Z,-0.80
2023-01-20T19:26:19.383Z,-0.70
2023-01-20T19:31:26.433Z,-0.60
2023-01-20T19:36:34.067Z,-0.70
2023-01-20T19:41:40.790Z,-0.70
2023-01-20T19:46:47.954Z,-0.80
2023-01-20T19:51:54.751Z,-1.00
2023-01-20T19:57:02.764Z,-0.70
2023-01-20T20:02:11.900Z,-0.80
2023-01-20T20:07:18.941Z,-0.90
2023-01-20T20:12:27.929Z,-0.90
2023-01-20T20:17:34.693Z,-0.90
2023-01-20T20:22:41.429Z,-0.80
2023-01-20T20:27:48.138Z,-0.80
2023-01-20T20:32:55.240Z,-0.60
2023-01-20T20:38:02.046Z,-0.60
2023-01-20T20:43:08.959Z,-0.70
2023-01-20T20:48:15.747Z,-0.80
2023-01-20T20:53:22.909Z,-0.80
2023-01-20T20:58:33.024Z,-0.90
2023-01-20T21:03:39.864Z,-0.70
2023-01-20T21:08:47.139Z,-0.80
2023-01-20T21:13:55.120Z,-0.90
2023-01-20T21:19:04.144Z,-0.90
2023-01-20T21:24:12.562Z,-0.90
2023-01-20T21:29:19.491Z,-0.80
2023-01-20T21:34:26.132Z,-0.80
2023-01-20T21:39:33.301Z,-0.90
2023-01-20T21:44:41.685Z,-1.00
2023-01-20T21:50:05.907Z,-1.10
2023-01-20T21:55:20.679Z,-1.10
2023-01-20T22:00:29.127Z,-1.10
2023-01-20T22:05:37.539Z,-1.20
2023-01-20T22:10:44.253Z,-1.30
2023-01-20T22:15:51.446Z,-1.20
2023-01-20T22:21:06.982Z,-1.20
2023-01-20T22:26:14.281Z,-1.10
2023-01-20T22:31:23.429Z,-1.10
2023-01-20T22:36:30.172Z,-1.30
2023-01-20T22:41:37.036Z,-1.20
2023-01-20T22:46:43.789Z,-1.30
2023-01-20T22:51:50.546Z,-1.50
2023-01-20T22:56:57.295Z,-1.40
2023-01-20T23:02:04.482Z,-1.40
2023-01-20T23:07:11.714Z,-1.20
2023-01-20T23:12:18.764Z,-1.30
2023-01-20T23:17:26.212Z,-1.40
2023-01-20T23:22:32.972Z,-1.50
2023-01-20T23:27:39.864Z,-1.50
2023-01-20T23:32:47.103Z,-1.60
2023-01-20T23:37:53.849Z,-1.60
2023-01-20T23:43:00.634Z,-1.10
2023-01-20T23:48:08.088Z,-1.40
2023-01-20T23:53:14.880Z,-1.60
2023-01-20T23:58:21.976Z,-1.50
